Time;durP1;ratioP1;P1;durP2;ratioP2;P2;SDS_P1;SDS_P2;PMS_P1;PMS_P2;Temp;Humidity;BMP_temperature;BMP_pressure;BME280_temperature;BME280_humidity;BME280_pressure;Samples;Min_cycle;Max_cycle;Signal;HPM_P1;HPM_P2
2023/02/27 00:01:42;;;;;;;8.40;3.63;;;;;;;;;;5062103;28;20183;-68
2023/02/27 00:04:07;;;;;;;5.50;3.40;;;;;;;;;;5065004;28;20424;-68
2023/02/27 00:06:35;;;;;;;10.23;4.20;;;;;;;;;;5064960;28;20309;-69
2023/02/27 00:09:00;;;;;;;7.27;3.90;;;;;;;;;;5060666;28;20198;-68
2023/02/27 00:11:26;;;;;;;8.20;4.10;;;;;;;;;;5066082;28;20670;-69
2023/02/27 00:13:51;;;;;;;7.13;3.73;;;;;;;;;;5064632;28;20171;-69
2023/02/27 00:16:16;;;;;;;4.87;3.10;;;;;;;;;;5065394;28;20633;-68
2023/02/27 00:18:41;;;;;;;6.73;3.60;;;;;;;;;;5065154;28;20957;-69
2023/02/27 00:21:07;;;;;;;4.63;3.00;;;;;;;;;;5056804;28;20174;-69
2023/02/27 00:23:32;;;;;;;9.00;3.70;;;;;;;;;;5062297;28;20885;-68
2023/02/27 00:25:59;;;;;;;4.70;3.03;;;;;;;;;;5063243;28;22629;-68
2023/02/27 00:28:25;;;;;;;8.17;3.90;;;;;;;;;;5063354;28;20234;-68
2023/02/27 00:30:50;;;;;;;5.07;3.63;;;;;;;;;;5063160;28;20883;-68
2023/02/27 00:33:15;;;;;;;6.20;3.60;;;;;;;;;;5066138;28;20187;-68
2023/02/27 00:35:43;;;;;;;6.40;3.57;;;;;;;;;;5069356;28;20638;-68
2023/02/27 00:38:08;;;;;;;7.93;3.43;;;;;;;;;;5066235;28;20243;-68
2023/02/27 00:40:34;;;;;;;8.00;3.60;;;;;;;;;;5063856;28;20507;-68
2023/02/27 00:43:00;;;;;;;8.60;4.57;;;;;;;;;;5063296;28;20179;-69
2023/02/27 00:45:25;;;;;;;5.10;3.30;;;;;;;;;;5065876;28;20478;-68
2023/02/27 00:47:51;;;;;;;9.50;3.90;;;;;;;;;;5060950;28;20692;-68
2023/02/27 00:50:16;;;;;;;6.67;3.33;;;;;;;;;;5066087;28;20795;-68
2023/02/27 00:52:41;;;;;;;14.20;3.97;;;;;;;;;;5069027;28;20186;-68
2023/02/27 00:55:07;;;;;;;7.63;3.50;;;;;;;;;;5066632;28;20244;-68
2023/02/27 00:57:32;;;;;;;6.50;3.30;;;;;;;;;;5064380;28;20299;-68
2023/02/27 00:59:57;;;;;;;5.50;3.00;;;;;;;;;;5068213;28;20274;-68
2023/02/27 01:02:23;;;;;;;8.43;3.00;;;;;;;;;;5069201;28;20626;-68
2023/02/27 01:04:48;;;;;;;5.20;3.00;;;;;;;;;;5066146;28;20739;-68
2023/02/27 01:07:14;;;;;;;6.63;3.67;;;;;;;;;;5060938;28;20736;-68
2023/02/27 01:09:39;;;;;;;7.57;3.53;;;;;;;;;;5062463;28;20190;-69
2023/02/27 01:12:04;;;;;;;8.47;3.27;;;;;;;;;;5063476;28;20649;-68
2023/02/27 01:14:32;;;;;;;6.23;2.70;;;;;;;;;;5064389;28;20176;-68
2023/02/27 01:16:57;;;;;;;5.10;2.60;;;;;;;;;;5067609;28;20198;-69
2023/02/27 01:19:23;;;;;;;6.47;2.53;;;;;;;;;;5065133;28;20430;-69
2023/02/27 01:21:48;;;;;;;7.77;3.50;;;;;;;;;;5067369;28;20194;-68
2023/02/27 01:24:14;;;;;;;7.03;2.40;;;;;;;;;;5063311;28;20237;-69
2023/02/27 01:26:39;;;;;;;4.90;2.97;;;;;;;;;;5058270;28;20186;-69
2023/02/27 01:29:05;;;;;;;3.20;2.10;;;;;;;;;;5066749;28;20206;-68
2023/02/27 01:31:30;;;;;;;8.50;2.53;;;;;;;;;;5060330;28;20274;-68
2023/02/27 01:33:55;;;;;;;6.93;2.67;;;;;;;;;;5059657;28;20268;-69
2023/02/27 01:36:21;;;;;;;5.40;2.60;;;;;;;;;;5061997;28;20183;-69
2023/02/27 01:38:46;;;;;;;6.60;2.63;;;;;;;;;;5063491;28;20282;-69
2023/02/27 01:41:11;;;;;;;4.30;2.37;;;;;;;;;;5060736;28;20187;-69
2023/02/27 01:43:53;;;;;;;6.87;2.70;;;;;;;;;;5063948;28;20196;-68
2023/02/27 01:46:18;;;;;;;5.23;2.27;;;;;;;;;;5059926;28;20187;-68
2023/02/27 01:48:44;;;;;;;3.73;2.10;;;;;;;;;;5059652;28;20492;-68
2023/02/27 01:51:12;;;;;;;4.00;2.23;;;;;;;;;;5064408;28;20209;-69
2023/02/27 01:53:38;;;;;;;9.90;2.60;;;;;;;;;;5062657;28;20185;-69
2023/02/27 01:56:06;;;;;;;4.60;2.30;;;;;;;;;;5062953;28;20439;-69
2023/02/27 01:58:32;;;;;;;8.47;2.70;;;;;;;;;;5061397;28;20828;-69
2023/02/27 02:00:58;;;;;;;8.80;2.60;;;;;;;;;;5066835;28;20429;-68
2023/02/27 02:03:23;;;;;;;5.63;2.27;;;;;;;;;;5064057;28;20486;-68
2023/02/27 02:05:51;;;;;;;3.97;2.83;;;;;;;;;;5058643;28;20179;-69
2023/02/27 02:08:17;;;;;;;3.63;2.30;;;;;;;;;;5064267;28;20206;-68
2023/02/27 02:10:46;;;;;;;6.27;2.30;;;;;;;;;;5059771;28;20480;-68
2023/02/27 02:13:11;;;;;;;7.57;2.47;;;;;;;;;;5063167;28;20457;-68
2023/02/27 02:15:40;;;;;;;5.47;1.93;;;;;;;;;;5061625;28;20457;-68
2023/02/27 02:18:11;;;;;;;4.83;3.10;;;;;;;;;;5060233;28;20988;-69
2023/02/27 02:20:59;;;;;;;3.83;1.90;;;;;;;;;;5061621;28;20437;-69
2023/02/27 02:23:37;;;;;;;4.00;2.67;;;;;;;;;;5050435;28;20591;-69
2023/02/27 02:26:12;;;;;;;3.53;2.10;;;;;;;;;;5063113;28;20429;-68
2023/02/27 02:28:56;;;;;;;6.57;2.90;;;;;;;;;;5056759;28;20491;-68
2023/02/27 02:31:34;;;;;;;4.63;2.13;;;;;;;;;;5061972;28;21214;-68
2023/02/27 02:34:18;;;;;;;5.80;2.07;;;;;;;;;;5063863;28;20421;-68
2023/02/27 02:36:55;;;;;;;3.57;1.63;;;;;;;;;;5059721;28;20453;-68
2023/02/27 02:39:40;;;;;;;3.57;2.13;;;;;;;;;;5055747;28;20437;-68
2023/02/27 02:42:08;;;;;;;2.50;1.93;;;;;;;;;;5062735;28;20433;-68
2023/02/27 02:44:40;;;;;;;5.03;1.83;;;;;;;;;;5063000;28;20429;-68
2023/02/27 02:47:26;;;;;;;7.57;2.47;;;;;;;;;;5061548;28;20583;-68
2023/02/27 02:50:10;;;;;;;7.33;2.20;;;;;;;;;;5061312;28;20447;-68
2023/02/27 02:52:55;;;;;;;4.67;1.93;;;;;;;;;;5058918;28;20440;-69
2023/02/27 02:55:21;;;;;;;2.97;1.77;;;;;;;;;;5057023;28;20491;-68
2023/02/27 02:57:54;;;;;;;3.97;1.90;;;;;;;;;;5055810;28;20493;-69
2023/02/27 03:00:23;;;;;;;9.50;2.30;;;;;;;;;;5061974;28;20516;-69
2023/02/27 03:02:54;;;;;;;5.20;2.10;;;;;;;;;;5061301;28;20572;-68
2023/02/27 03:05:23;;;;;;;4.67;2.50;;;;;;;;;;5060793;28;20803;-69
2023/02/27 03:07:48;;;;;;;2.80;1.67;;;;;;;;;;5057965;28;20466;-69
2023/02/27 03:10:18;;;;;;;4.27;2.27;;;;;;;;;;5062419;28;20439;-68
2023/02/27 03:12:45;;;;;;;5.10;2.60;;;;;;;;;;5050118;28;20195;-68
2023/02/27 03:15:18;;;;;;;3.70;2.23;;;;;;;;;;5061636;28;20433;-68
2023/02/27 03:17:54;;;;;;;6.27;2.50;;;;;;;;;;5058523;28;20456;-68
2023/02/27 03:20:25;;;;;;;2.63;1.73;;;;;;;;;;5065254;28;20486;-68
2023/02/27 03:22:54;;;;;;;6.03;2.17;;;;;;;;;;5068276;28;20924;-68
2023/02/27 03:25:20;;;;;;;5.30;2.40;;;;;;;;;;5064255;28;20418;-68
2023/02/27 03:27:58;;;;;;;6.53;2.70;;;;;;;;;;5065079;28;20461;-68
2023/02/27 03:30:30;;;;;;;5.37;2.57;;;;;;;;;;5065521;28;20405;-68
2023/02/27 03:33:06;;;;;;;3.43;2.17;;;;;;;;;;5065714;28;20413;-68
2023/02/27 03:35:49;;;;;;;5.30;2.20;;;;;;;;;;5063169;28;20429;-68
2023/02/27 03:38:21;;;;;;;7.50;2.20;;;;;;;;;;5060813;28;20459;-68
2023/02/27 03:40:46;;;;;;;2.40;1.50;;;;;;;;;;5061974;28;20535;-68
2023/02/27 03:43:20;;;;;;;5.30;1.90;;;;;;;;;;5060122;28;20522;-68
2023/02/27 03:45:54;;;;;;;4.67;1.87;;;;;;;;;;5059813;28;20198;-68
2023/02/27 03:48:20;;;;;;;3.10;1.70;;;;;;;;;;5051624;28;20480;-68
2023/02/27 03:50:47;;;;;;;4.97;1.63;;;;;;;;;;5053974;28;21651;-68
2023/02/27 03:53:20;;;;;;;3.83;2.20;;;;;;;;;;5058881;28;20182;-68
2023/02/27 03:55:46;;;;;;;5.73;2.30;;;;;;;;;;5059914;28;20424;-68
2023/02/27 03:58:11;;;;;;;4.80;2.20;;;;;;;;;;5058928;28;20562;-68
2023/02/27 04:00:39;;;;;;;6.30;2.43;;;;;;;;;;5075898;28;21957;-68
2023/02/27 04:03:04;;;;;;;3.70;2.07;;;;;;;;;;5080199;28;20451;-68
2023/02/27 04:05:29;;;;;;;4.50;2.10;;;;;;;;;;5080656;28;20666;-68
2023/02/27 04:07:58;;;;;;;4.70;2.00;;;;;;;;;;5078479;28;20223;-67
2023/02/27 04:10:26;;;;;;;9.50;1.90;;;;;;;;;;5080040;28;20178;-67
2023/02/27 04:13:10;;;;;;;4.37;1.90;;;;;;;;;;5079921;28;20436;-67
2023/02/27 04:15:49;;;;;;;6.67;2.20;;;;;;;;;;5079235;28;21206;-68
2023/02/27 04:18:33;;;;;;;3.70;2.10;;;;;;;;;;5079014;28;20488;-68
2023/02/27 04:21:18;;;;;;;4.97;1.70;;;;;;;;;;5074529;28;20432;-67
2023/02/27 04:24:07;;;;;;;3.63;1.90;;;;;;;;;;5032765;28;20440;-68
2023/02/27 04:26:45;;;;;;;4.03;1.80;;;;;;;;;;5058572;28;20432;-67
2023/02/27 04:29:15;;;;;;;6.30;1.90;;;;;;;;;;5078791;28;20456;-68
2023/02/27 04:31:46;;;;;;;2.63;1.63;;;;;;;;;;5078089;28;20438;-68
2023/02/27 04:34:19;;;;;;;5.00;1.97;;;;;;;;;;5078407;28;20439;-69
2023/02/27 04:36:48;;;;;;;3.77;1.37;;;;;;;;;;5080048;28;20459;-68
2023/02/27 04:39:46;;;;;;;4.17;1.50;;;;;;;;;;5077206;28;20436;-67
2023/02/27 04:42:14;;;;;;;4.90;1.87;;;;;;;;;;5048786;28;20440;-67
2023/02/27 04:44:41;;;;;;;2.70;1.43;;;;;;;;;;5081785;28;20462;-68
2023/02/27 04:47:07;;;;;;;7.30;1.83;;;;;;;;;;5080870;28;20477;-68
2023/02/27 04:49:47;;;;;;;7.90;2.10;;;;;;;;;;5076205;28;20990;-68
2023/02/27 04:52:17;;;;;;;2.50;1.37;;;;;;;;;;5082505;28;20497;-68
2023/02/27 04:54:49;;;;;;;3.60;1.90;;;;;;;;;;5082586;28;21107;-68
2023/02/27 04:57:35;;;;;;;5.90;2.00;;;;;;;;;;5089801;22;20562;-79
2023/02/27 05:00:07;;;;;;;4.57;1.87;;;;;;;;;;5076773;28;20513;-78
2023/02/27 05:02:42;;;;;;;6.10;1.77;;;;;;;;;;5082996;28;21052;-78
2023/02/27 05:05:15;;;;;;;3.17;1.93;;;;;;;;;;5083828;28;20829;-78
2023/02/27 05:07:46;;;;;;;3.63;1.50;;;;;;;;;;5076803;28;20507;-79
2023/02/27 05:10:25;;;;;;;3.83;1.67;;;;;;;;;;5049185;28;20440;-79
2023/02/27 05:12:58;;;;;;;7.70;2.30;;;;;;;;;;5074517;28;20524;-80
2023/02/27 05:15:27;;;;;;;6.30;2.10;;;;;;;;;;5054609;28;20489;-80
2023/02/27 05:17:59;;;;;;;5.27;1.83;;;;;;;;;;5072085;28;20452;-79
2023/02/27 05:20:45;;;;;;;4.23;1.70;;;;;;;;;;5071314;28;20463;-78
2023/02/27 05:23:28;;;;;;;4.93;2.40;;;;;;;;;;5070490;28;20911;-78
2023/02/27 05:26:07;;;;;;;6.67;3.77;;;;;;;;;;5074402;28;20538;-78
2023/02/27 05:28:56;;;;;;;5.67;2.47;;;;;;;;;;5064047;28;20480;-79
2023/02/27 05:31:30;;;;;;;4.83;2.60;;;;;;;;;;5043620;28;21070;-80
2023/02/27 05:34:15;;;;;;;4.70;2.10;;;;;;;;;;5069015;28;20933;-79
2023/02/27 05:36:54;;;;;;;6.77;2.50;;;;;;;;;;5057207;28;20803;-79
2023/02/27 05:39:24;;;;;;;4.93;1.93;;;;;;;;;;5063807;28;20426;-78
2023/02/27 05:41:56;;;;;;;4.70;2.00;;;;;;;;;;5077478;28;20474;-78
2023/02/27 05:44:28;;;;;;;3.30;1.80;;;;;;;;;;5071254;28;20808;-78
2023/02/27 05:47:23;;;;;;;3.43;1.90;;;;;;;;;;5072629;28;20934;-78
2023/02/27 05:50:01;;;;;;;5.37;1.83;;;;;;;;;;5050058;28;20533;-79
2023/02/27 05:52:28;;;;;;;4.80;2.10;;;;;;;;;;5060165;28;22022;-79
2023/02/27 05:55:02;;;;;;;5.23;1.80;;;;;;;;;;5068669;28;20440;-78
2023/02/27 05:57:29;;;;;;;3.80;1.63;;;;;;;;;;5071299;28;20467;-78
2023/02/27 06:00:21;;;;;;;4.40;1.70;;;;;;;;;;5073610;28;20425;-78
2023/02/27 06:02:48;;;;;;;3.80;1.90;;;;;;;;;;5068768;28;20437;-79
2023/02/27 06:05:17;;;;;;;3.20;1.97;;;;;;;;;;5074939;28;20424;-77
2023/02/27 06:07:47;;;;;;;4.37;2.07;;;;;;;;;;5047982;28;20465;-79
2023/02/27 06:10:15;;;;;;;4.43;1.67;;;;;;;;;;5055371;28;20433;-81
2023/02/27 06:12:41;;;;;;;4.23;2.20;;;;;;;;;;5068160;28;20421;-80
2023/02/27 06:15:06;;;;;;;3.23;1.90;;;;;;;;;;5052136;28;20436;-80
2023/02/27 06:17:34;;;;;;;6.00;1.83;;;;;;;;;;5042080;28;20260;-79
2023/02/27 06:19:59;;;;;;;5.53;1.67;;;;;;;;;;5060584;28;20241;-79
2023/02/27 06:22:27;;;;;;;4.47;1.60;;;;;;;;;;5066317;28;20445;-79
2023/02/27 06:24:55;;;;;;;2.13;1.47;;;;;;;;;;5073430;28;20578;-79
2023/02/27 06:27:22;;;;;;;6.77;2.17;;;;;;;;;;5064839;28;20461;-79
2023/02/27 06:29:50;;;;;;;3.03;1.40;;;;;;;;;;5063513;28;20560;-77
2023/02/27 06:32:16;;;;;;;8.30;2.40;;;;;;;;;;5070138;28;20971;-77
2023/02/27 06:34:46;;;;;;;4.00;1.90;;;;;;;;;;5047842;28;20481;-79
2023/02/27 06:37:11;;;;;;;5.53;1.70;;;;;;;;;;5069993;28;20221;-78
2023/02/27 06:39:41;;;;;;;2.93;1.50;;;;;;;;;;5058253;28;20794;-78
2023/02/27 06:42:10;;;;;;;4.07;2.17;;;;;;;;;;5057762;28;20287;-79
2023/02/27 06:44:35;;;;;;;4.30;2.00;;;;;;;;;;5066623;28;20458;-79
2023/02/27 06:47:00;;;;;;;4.20;1.83;;;;;;;;;;5073258;28;20487;-79
2023/02/27 06:49:26;;;;;;;4.60;1.80;;;;;;;;;;5074395;28;20202;-78
2023/02/27 06:51:54;;;;;;;6.23;1.80;;;;;;;;;;5064883;28;20167;-78
2023/02/27 06:54:21;;;;;;;6.67;1.77;;;;;;;;;;5076933;28;20266;-79
2023/02/27 06:56:47;;;;;;;7.87;1.80;;;;;;;;;;5054407;28;20414;-79
2023/02/27 06:59:12;;;;;;;2.50;1.50;;;;;;;;;;5066938;28;20424;-77
2023/02/27 07:01:37;;;;;;;5.53;1.93;;;;;;;;;;5070581;28;21048;-76
2023/02/27 07:04:03;;;;;;;4.73;2.20;;;;;;;;;;5070951;28;20451;-76
2023/02/27 07:06:28;;;;;;;8.00;3.80;;;;;;;;;;5048250;28;20183;-77
2023/02/27 07:08:58;;;;;;;5.70;2.30;;;;;;;;;;5061945;28;20207;-77
2023/02/27 07:11:26;;;;;;;5.03;2.30;;;;;;;;;;5067958;28;20222;-77
2023/02/27 07:13:55;;;;;;;5.13;1.93;;;;;;;;;;5069922;28;20439;-74
2023/02/27 07:16:23;;;;;;;6.83;2.40;;;;;;;;;;5047052;28;20849;-75
2023/02/27 07:18:48;;;;;;;4.40;2.33;;;;;;;;;;5066620;28;20463;-75
2023/02/27 07:21:14;;;;;;;5.00;2.00;;;;;;;;;;5054287;28;20436;-75
2023/02/27 07:23:42;;;;;;;5.50;2.10;;;;;;;;;;5056078;28;20640;-75
2023/02/27 07:26:08;;;;;;;4.03;2.20;;;;;;;;;;5047494;28;20433;-75
2023/02/27 07:28:36;;;;;;;5.80;2.37;;;;;;;;;;5063841;28;21021;-75
2023/02/27 07:31:03;;;;;;;7.67;2.77;;;;;;;;;;5064762;28;20171;-75
2023/02/27 07:33:32;;;;;;;9.37;2.77;;;;;;;;;;5064655;28;20467;-75
2023/02/27 07:35:58;;;;;;;4.90;2.40;;;;;;;;;;5059388;28;20421;-76
2023/02/27 07:38:23;;;;;;;3.73;2.13;;;;;;;;;;5074281;28;20450;-75
2023/02/27 07:40:51;;;;;;;11.97;2.40;;;;;;;;;;5073463;28;20187;-75
2023/02/27 07:43:16;;;;;;;6.40;2.67;;;;;;;;;;5069494;28;20187;-75
2023/02/27 07:45:44;;;;;;;3.60;2.10;;;;;;;;;;5059871;28;20444;-75
2023/02/27 07:48:12;;;;;;;6.00;2.50;;;;;;;;;;5071893;28;20209;-76
2023/02/27 07:50:40;;;;;;;8.67;2.20;;;;;;;;;;5073264;28;20839;-75
2023/02/27 07:53:06;;;;;;;3.93;2.07;;;;;;;;;;5075520;28;20550;-76
2023/02/27 07:55:32;;;;;;;4.77;2.43;;;;;;;;;;5060650;28;20416;-75
2023/02/27 07:57:57;;;;;;;5.43;2.30;;;;;;;;;;5070286;28;20559;-76
2023/02/27 08:00:22;;;;;;;7.97;2.40;;;;;;;;;;5072240;28;20193;-76
2023/02/27 08:02:48;;;;;;;9.93;2.67;;;;;;;;;;5072583;28;20171;-76
2023/02/27 08:05:13;;;;;;;9.87;2.50;;;;;;;;;;5054334;28;20638;-75
2023/02/27 08:07:41;;;;;;;6.67;2.73;;;;;;;;;;5045908;28;20214;-73
2023/02/27 08:10:07;;;;;;;11.10;2.20;;;;;;;;;;5070912;28;20424;-78
2023/02/27 08:12:32;;;;;;;4.10;2.00;;;;;;;;;;5056585;28;20439;-77
2023/02/27 08:14:58;;;;;;;7.67;2.83;;;;;;;;;;5045550;28;20214;-76
2023/02/27 08:17:25;;;;;;;5.40;2.30;;;;;;;;;;5063111;28;21498;-77
2023/02/27 08:19:51;;;;;;;5.57;1.50;;;;;;;;;;5066444;28;20648;-76
2023/02/27 08:22:16;;;;;;;5.33;1.50;;;;;;;;;;5072257;28;20542;-77
2023/02/27 08:24:44;;;;;;;3.47;1.93;;;;;;;;;;5056043;28;20388;-76
2023/02/27 08:27:12;;;;;;;4.67;1.97;;;;;;;;;;5051046;28;20217;-77
2023/02/27 08:29:37;;;;;;;2.90;1.63;;;;;;;;;;5067608;28;20534;-77
2023/02/27 08:32:03;;;;;;;4.53;1.90;;;;;;;;;;5065943;28;20940;-78
2023/02/27 08:34:29;;;;;;;3.53;1.40;;;;;;;;;;5060162;28;20644;-78
2023/02/27 08:36:54;;;;;;;5.67;1.40;;;;;;;;;;5052854;28;20453;-78
2023/02/27 08:39:22;;;;;;;6.20;1.70;;;;;;;;;;5071570;28;20194;-78
2023/02/27 08:41:48;;;;;;;3.70;1.60;;;;;;;;;;5058015;28;20209;-79
2023/02/27 08:44:13;;;;;;;6.10;1.70;;;;;;;;;;5082419;28;20420;-78
2023/02/27 08:46:39;;;;;;;8.43;1.60;;;;;;;;;;5081683;28;20641;-78
2023/02/27 08:49:06;;;;;;;6.47;2.37;;;;;;;;;;5061902;28;20689;-79
2023/02/27 08:51:32;;;;;;;6.40;1.50;;;;;;;;;;5059956;28;20179;-78
2023/02/27 08:54:00;;;;;;;3.47;1.40;;;;;;;;;;5069195;28;20460;-78
2023/02/27 08:56:26;;;;;;;2.37;1.60;;;;;;;;;;5071971;28;20628;-78
2023/02/27 08:58:51;;;;;;;1.90;0.90;;;;;;;;;;5054274;28;20468;-79
2023/02/27 09:01:17;;;;;;;3.13;1.10;;;;;;;;;;5080063;28;20179;-79
2023/02/27 09:03:42;;;;;;;3.20;1.10;;;;;;;;;;5074740;28;20191;-79
2023/02/27 09:06:07;;;;;;;2.80;1.20;;;;;;;;;;5073794;28;20207;-79
2023/02/27 09:08:35;;;;;;;4.57;1.40;;;;;;;;;;5070798;28;20199;-79
2023/02/27 09:11:01;;;;;;;3.67;1.50;;;;;;;;;;5074336;28;20174;-79
2023/02/27 09:13:27;;;;;;;3.70;1.00;;;;;;;;;;5051679;28;20444;-79
2023/02/27 09:15:53;;;;;;;4.50;1.20;;;;;;;;;;5052886;28;20440;-79
2023/02/27 09:18:18;;;;;;;2.80;1.23;;;;;;;;;;5052658;28;20203;-79
2023/02/27 09:20:43;;;;;;;6.00;1.33;;;;;;;;;;5060455;28;20574;-79
2023/02/27 09:23:09;;;;;;;2.90;1.00;;;;;;;;;;5058695;28;20637;-79
2023/02/27 09:25:34;;;;;;;3.27;1.37;;;;;;;;;;5059946;28;20185;-79
2023/02/27 09:28:00;;;;;;;5.23;1.20;;;;;;;;;;5068315;28;20203;-80
2023/02/27 09:30:25;;;;;;;3.27;1.03;;;;;;;;;;5068604;28;20751;-80
2023/02/27 09:32:51;;;;;;;3.07;1.40;;;;;;;;;;5066820;28;20200;-80
2023/02/27 09:35:19;;;;;;;3.57;1.10;;;;;;;;;;5069093;28;20182;-80
2023/02/27 09:37:44;;;;;;;4.40;1.20;;;;;;;;;;5054820;28;20211;-80
2023/02/27 09:40:14;;;;;;;1.77;1.10;;;;;;;;;;5079126;28;20440;-80
2023/02/27 09:42:44;;;;;;;1.97;0.97;;;;;;;;;;5058924;28;20194;-80
2023/02/27 09:45:15;;;;;;;4.30;1.10;;;;;;;;;;5069199;28;20434;-80
2023/02/27 09:47:43;;;;;;;5.57;1.10;;;;;;;;;;5068684;28;20469;-79
2023/02/27 09:50:17;;;;;;;2.13;1.10;;;;;;;;;;5055469;28;20432;-80
2023/02/27 09:52:43;;;;;;;2.27;0.93;;;;;;;;;;5067235;28;20884;-80
2023/02/27 09:55:14;;;;;;;5.23;1.27;;;;;;;;;;5058117;28;20569;-80
2023/02/27 09:57:43;;;;;;;2.17;0.80;;;;;;;;;;5070692;28;20449;-80
2023/02/27 10:00:15;;;;;;;2.57;1.10;;;;;;;;;;5058750;28;20464;-79
2023/02/27 10:02:57;;;;;;;3.50;1.20;;;;;;;;;;5060021;28;20422;-81
2023/02/27 10:05:29;;;;;;;4.30;1.43;;;;;;;;;;5075486;28;20436;-80
2023/02/27 10:07:54;;;;;;;2.23;1.00;;;;;;;;;;5075535;28;20460;-80
2023/02/27 10:10:38;;;;;;;4.47;1.00;;;;;;;;;;5077109;28;20423;-81
2023/02/27 10:13:15;;;;;;;2.03;0.97;;;;;;;;;;5080012;28;20169;-81
2023/02/27 10:15:45;;;;;;;2.70;1.20;;;;;;;;;;5071983;28;20780;-81
2023/02/27 10:18:13;;;;;;;3.90;1.00;;;;;;;;;;5040837;28;20580;-81
2023/02/27 10:20:42;;;;;;;1.70;1.00;;;;;;;;;;5054283;28;20442;-81
2023/02/27 10:23:13;;;;;;;2.50;1.00;;;;;;;;;;5055504;28;20441;-82
2023/02/27 10:25:42;;;;;;;2.20;0.97;;;;;;;;;;5054498;28;20437;-81
2023/02/27 10:28:12;;;;;;;2.97;0.83;;;;;;;;;;5062642;28;20594;-81
2023/02/27 10:30:38;;;;;;;1.73;0.77;;;;;;;;;;5073098;28;20429;-81
2023/02/27 10:33:06;;;;;;;2.07;0.70;;;;;;;;;;5070523;28;20447;-81
2023/02/27 10:35:33;;;;;;;1.83;0.73;;;;;;;;;;5053077;28;20183;-81
2023/02/27 10:38:00;;;;;;;14.20;1.10;;;;;;;;;;5055529;28;20445;-81
2023/02/27 10:40:27;;;;;;;1.37;0.60;;;;;;;;;;5067040;28;20429;-82
2023/02/27 10:42:53;;;;;;;1.47;0.70;;;;;;;;;;5074026;28;20433;-82
2023/02/27 10:45:19;;;;;;;3.90;0.70;;;;;;;;;;5053660;28;20939;-81
2023/02/27 10:47:47;;;;;;;2.37;0.90;;;;;;;;;;5069631;28;20469;-81
2023/02/27 10:50:41;;;;;;;1.47;0.60;;;;;;;;;;5073172;28;20489;-82
2023/02/27 10:53:16;;;;;;;2.23;0.60;;;;;;;;;;5049502;28;20443;-81
2023/02/27 10:55:43;;;;;;;1.13;0.67;;;;;;;;;;5069584;28;20423;-82
2023/02/27 10:58:17;;;;;;;1.93;0.87;;;;;;;;;;5067903;28;20533;-82
2023/02/27 11:00:52;;;;;;;3.67;0.83;;;;;;;;;;5045959;28;20437;-81
2023/02/27 11:03:19;;;;;;;2.30;0.70;;;;;;;;;;5047174;28;20448;-81
2023/02/27 11:05:51;;;;;;;1.70;0.60;;;;;;;;;;5072548;28;20440;-81
2023/02/27 11:08:21;;;;;;;0.70;0.50;;;;;;;;;;5073983;28;20497;-81
2023/02/27 11:10:57;;;;;;;1.63;0.60;;;;;;;;;;5058335;28;20460;-81
2023/02/27 11:13:24;;;;;;;1.27;0.60;;;;;;;;;;5073906;22;20883;-68
2023/02/27 11:16:07;;;;;;;2.93;0.97;;;;;;;;;;5053963;28;20441;-71
2023/02/27 11:18:33;;;;;;;1.87;0.63;;;;;;;;;;5071778;28;20558;-71
2023/02/27 11:21:10;;;;;;;1.37;0.60;;;;;;;;;;5063841;28;20474;-70
2023/02/27 11:23:36;;;;;;;6.50;0.70;;;;;;;;;;5052073;28;20447;-71
2023/02/27 11:26:14;;;;;;;0.60;0.50;;;;;;;;;;5033571;28;20429;-70
2023/02/27 11:28:40;;;;;;;0.90;0.70;;;;;;;;;;5068946;28;20687;-71
2023/02/27 11:31:20;;;;;;;0.80;0.50;;;;;;;;;;5070554;28;20413;-70
2023/02/27 11:33:56;;;;;;;4.30;1.00;;;;;;;;;;5071437;28;20217;-70
2023/02/27 11:36:22;;;;;;;1.70;0.60;;;;;;;;;;5073721;28;20409;-70
2023/02/27 11:38:54;;;;;;;0.80;0.67;;;;;;;;;;5058577;28;20429;-71
2023/02/27 11:41:28;;;;;;;2.73;0.70;;;;;;;;;;5076654;28;20405;-71
2023/02/27 11:43:55;;;;;;;1.03;0.60;;;;;;;;;;5055557;28;20451;-70
2023/02/27 11:46:21;;;;;;;1.50;0.67;;;;;;;;;;5053296;28;20421;-71
2023/02/27 11:48:49;;;;;;;1.27;0.67;;;;;;;;;;5070363;28;20453;-71
2023/02/27 11:51:33;;;;;;;2.70;0.70;;;;;;;;;;5071707;28;20410;-71
2023/02/27 11:54:01;;;;;;;1.20;0.50;;;;;;;;;;5073973;28;20432;-70
2023/02/27 11:56:32;;;;;;;0.93;0.53;;;;;;;;;;5072377;28;20405;-71
2023/02/27 11:59:04;;;;;;;1.00;0.60;;;;;;;;;;5072351;28;20413;-70
2023/02/27 12:01:33;;;;;;;1.33;0.53;;;;;;;;;;5053131;28;20444;-70
2023/02/27 12:04:01;;;;;;;1.30;0.70;;;;;;;;;;5052733;28;20896;-70
2023/02/27 12:06:28;;;;;;;1.30;0.60;;;;;;;;;;5051475;28;20487;-70
2023/02/27 12:08:56;;;;;;;1.43;0.60;;;;;;;;;;5067992;28;20457;-70
2023/02/27 12:11:26;;;;;;;1.60;0.80;;;;;;;;;;5075352;28;20477;-70
2023/02/27 12:14:09;;;;;;;1.50;0.70;;;;;;;;;;5055411;28;20903;-70
2023/02/27 12:16:54;;;;;;;0.80;0.60;;;;;;;;;;5073402;28;20470;-70
2023/02/27 12:19:37;;;;;;;0.70;0.60;;;;;;;;;;5068245;28;20961;-70
2023/02/27 12:22:12;;;;;;;1.47;0.70;;;;;;;;;;5046999;28;20841;-71
2023/02/27 12:24:47;;;;;;;1.43;0.70;;;;;;;;;;5072179;28;21161;-70
2023/02/27 12:27:30;;;;;;;1.40;0.63;;;;;;;;;;5037945;28;20513;-70
2023/02/27 12:29:59;;;;;;;2.03;0.53;;;;;;;;;;5064678;28;20433;-70
2023/02/27 12:32:33;;;;;;;0.97;0.60;;;;;;;;;;5048374;28;20921;-70
2023/02/27 12:35:18;;;;;;;0.97;0.70;;;;;;;;;;5066371;28;20444;-70
2023/02/27 12:37:43;;;;;;;3.03;0.90;;;;;;;;;;5074169;28;20906;-70
2023/02/27 12:40:15;;;;;;;0.60;0.50;;;;;;;;;;5058363;28;20747;-70
2023/02/27 12:42:41;;;;;;;1.17;0.60;;;;;;;;;;5050173;28;20179;-71
2023/02/27 12:45:06;;;;;;;0.70;0.63;;;;;;;;;;5072712;28;20447;-70
2023/02/27 12:47:31;;;;;;;1.70;0.90;;;;;;;;;;5072390;28;20259;-71
2023/02/27 12:49:56;;;;;;;1.97;0.60;;;;;;;;;;5056754;28;20210;-70
2023/02/27 12:52:22;;;;;;;1.43;0.60;;;;;;;;;;5057885;28;20649;-70
2023/02/27 12:54:50;;;;;;;2.30;0.70;;;;;;;;;;5074511;28;20191;-71
2023/02/27 12:57:28;;;;;;;1.53;0.63;;;;;;;;;;5073413;28;20657;-70
2023/02/27 13:00:00;;;;;;;0.67;0.60;;;;;;;;;;5069693;28;20444;-70
2023/02/27 13:02:31;;;;;;;1.33;0.60;;;;;;;;;;5070903;28;20401;-70
2023/02/27 13:05:02;;;;;;;1.60;0.60;;;;;;;;;;5068038;28;20453;-71
2023/02/27 13:07:51;;;;;;;1.90;0.70;;;;;;;;;;5070076;28;20796;-70
2023/02/27 13:10:26;;;;;;;0.90;0.60;;;;;;;;;;5006439;28;20424;-70
2023/02/27 13:13:10;;;;;;;0.83;0.60;;;;;;;;;;5070853;28;20442;-70
2023/02/27 13:15:47;;;;;;;0.93;0.67;;;;;;;;;;5070856;28;20439;-70
2023/02/27 13:18:21;;;;;;;2.67;0.70;;;;;;;;;;5075273;28;20503;-70
2023/02/27 13:20:49;;;;;;;0.57;0.50;;;;;;;;;;5060611;28;20795;-70
2023/02/27 13:23:21;;;;;;;1.80;1.10;;;;;;;;;;5069062;28;20435;-70
2023/02/27 13:25:49;;;;;;;0.73;0.60;;;;;;;;;;5076826;28;20433;-70
2023/02/27 13:28:19;;;;;;;3.43;1.73;;;;;;;;;;5049492;28;20835;-71
2023/02/27 13:30:57;;;;;;;1.10;0.77;;;;;;;;;;5060287;28;20563;-70
2023/02/27 13:33:41;;;;;;;2.60;0.93;;;;;;;;;;5072830;28;20436;-71
2023/02/27 13:36:18;;;;;;;1.63;0.70;;;;;;;;;;5069498;28;20880;-70
2023/02/27 13:38:48;;;;;;;0.80;0.60;;;;;;;;;;5071504;28;20422;-71
2023/02/27 13:41:19;;;;;;;1.50;0.60;;;;;;;;;;5072045;28;20532;-70
2023/02/27 13:43:47;;;;;;;2.23;0.70;;;;;;;;;;5058287;28;20449;-70
2023/02/27 13:46:28;;;;;;;3.10;0.90;;;;;;;;;;5067618;28;20493;-70
2023/02/27 13:49:14;;;;;;;1.00;0.60;;;;;;;;;;5071887;28;20449;-70
2023/02/27 13:51:42;;;;;;;1.10;0.60;;;;;;;;;;5058253;28;20409;-70
2023/02/27 13:54:16;;;;;;;1.33;0.80;;;;;;;;;;5069690;28;20454;-70
2023/02/27 13:56:41;;;;;;;3.90;0.67;;;;;;;;;;5071105;28;20916;-70
2023/02/27 13:59:19;;;;;;;2.03;0.70;;;;;;;;;;5067591;28;20431;-70
2023/02/27 14:01:52;;;;;;;4.43;0.80;;;;;;;;;;5072961;28;20170;-70
2023/02/27 14:04:18;;;;;;;1.17;0.60;;;;;;;;;;5073507;28;20440;-70
2023/02/27 14:06:45;;;;;;;4.43;2.93;;;;;;;;;;5055214;28;20974;-70
2023/02/27 14:09:12;;;;;;;2.97;1.77;;;;;;;;;;5072157;28;20460;-70
2023/02/27 14:11:40;;;;;;;4.67;2.20;;;;;;;;;;5075440;28;20432;-71
2023/02/27 14:14:07;;;;;;;2.20;1.10;;;;;;;;;;5069934;28;20841;-70
2023/02/27 14:16:38;;;;;;;2.13;0.77;;;;;;;;;;5071193;28;20433;-70
2023/02/27 14:19:16;;;;;;;2.30;0.77;;;;;;;;;;5064836;28;20960;-70
2023/02/27 14:21:51;;;;;;;3.93;0.80;;;;;;;;;;5056999;28;20448;-71
2023/02/27 14:24:39;;;;;;;1.53;1.03;;;;;;;;;;5066272;28;20453;-71
2023/02/27 14:27:30;;;;;;;1.93;1.00;;;;;;;;;;5073724;28;20460;-70
2023/02/27 14:29:57;;;;;;;5.17;1.30;;;;;;;;;;5052908;28;20442;-70
2023/02/27 14:32:27;;;;;;;1.20;0.83;;;;;;;;;;5055546;28;20433;-70
2023/02/27 14:34:53;;;;;;;2.43;0.90;;;;;;;;;;5071956;28;20437;-70
2023/02/27 14:37:22;;;;;;;1.97;0.60;;;;;;;;;;5056645;28;20435;-70
2023/02/27 14:39:49;;;;;;;3.80;0.67;;;;;;;;;;5057892;28;20183;-70
2023/02/27 14:42:24;;;;;;;3.00;0.90;;;;;;;;;;5055153;28;20426;-70
2023/02/27 14:44:49;;;;;;;0.80;0.70;;;;;;;;;;5073168;28;20444;-70
2023/02/27 14:47:19;;;;;;;3.07;0.73;;;;;;;;;;5059407;28;20432;-70
2023/02/27 14:49:46;;;;;;;3.10;0.50;;;;;;;;;;5056743;28;20660;-70
2023/02/27 14:52:13;;;;;;;1.80;1.10;;;;;;;;;;5059059;28;20436;-71
2023/02/27 14:54:38;;;;;;;1.40;0.80;;;;;;;;;;5060096;28;20495;-70
2023/02/27 14:57:04;;;;;;;1.20;0.70;;;;;;;;;;5057648;28;20437;-71
2023/02/27 14:59:35;;;;;;;1.30;0.70;;;;;;;;;;5071747;28;20483;-71
2023/02/27 15:02:02;;;;;;;1.00;0.60;;;;;;;;;;5060055;28;20417;-71